createdAt,value
2018-07-30T00:02:00.409Z,34.66
2018-07-30T00:04:26.531Z,35.35
2018-07-30T00:06:53.154Z,35.21
2018-07-30T00:09:20.000Z,35.08
2018-07-30T00:11:46.282Z,34.71
2018-07-30T00:14:13.200Z,35.34
2018-07-30T00:16:39.356Z,34.67
2018-07-30T00:19:06.136Z,34.81
2018-07-30T00:21:32.942Z,35.62
2018-07-30T00:23:58.957Z,35.89
2018-07-30T00:26:26.367Z,35.78
2018-07-30T00:28:52.474Z,35.97
2018-07-30T00:31:19.693Z,35.73
2018-07-30T00:33:46.430Z,35.67
2018-07-30T00:36:14.859Z,34.85
2018-07-30T00:38:42.898Z,35.70
2018-07-30T00:41:10.848Z,35.42
2018-07-30T00:43:37.215Z,35.29
2018-07-30T00:46:03.430Z,35.87
2018-07-30T00:48:29.565Z,35.96
2018-07-30T00:50:56.711Z,35.79
2018-07-30T00:53:22.870Z,35.40
2018-07-30T00:55:50.392Z,36.26
2018-07-30T01:00:48.881Z,36.07
2018-07-30T01:03:14.972Z,36.04
2018-07-30T01:05:41.102Z,36.07
2018-07-30T01:08:08.074Z,35.72
2018-07-30T01:10:34.149Z,35.02
2018-07-30T01:13:00.146Z,35.48
2018-07-30T01:20:37.713Z,35.49
2018-07-30T01:23:08.844Z,36.43
2018-07-30T01:25:34.980Z,35.64
2018-07-30T01:28:01.825Z,36.31
2018-07-30T01:30:27.836Z,35.56
2018-07-30T01:32:53.895Z,34.76
2018-07-30T01:35:20.016Z,34.96
2018-07-30T01:37:46.046Z,35.64
2018-07-30T01:40:12.074Z,36.31
2018-07-30T01:42:38.098Z,35.99
2018-07-30T01:45:04.983Z,35.41
2018-07-30T01:50:02.804Z,35.07
2018-07-30T01:57:32.640Z,35.43
2018-07-30T01:59:58.608Z,35.31
2018-07-30T02:02:24.577Z,35.09
2018-07-30T02:04:50.565Z,35.37
2018-07-30T02:07:16.574Z,34.84
2018-07-30T02:09:42.542Z,34.91
2018-07-30T02:12:08.516Z,35.30
2018-07-30T02:14:35.138Z,36.06
2018-07-30T02:17:02.014Z,35.56
2018-07-30T02:19:28.025Z,36.01
2018-07-30T02:21:54.083Z,36.54
2018-07-30T02:24:20.102Z,36.69
2018-07-30T02:26:46.182Z,36.73
2018-07-30T02:29:12.224Z,36.64
2018-07-30T02:31:38.250Z,36.31
2018-07-30T02:34:05.080Z,36.52
2018-07-30T02:36:33.050Z,36.41
2018-07-30T02:39:02.068Z,36.88
2018-07-30T02:41:28.136Z,37.12
2018-07-30T02:43:54.614Z,37.26
2018-07-30T02:46:20.718Z,37.70
2018-07-30T02:48:49.277Z,38.43
2018-07-30T02:51:15.321Z,37.00
2018-07-30T02:53:41.364Z,37.05
2018-07-30T02:56:07.408Z,37.01
2018-07-30T02:58:33.502Z,36.94
2018-07-30T03:00:59.614Z,37.14
2018-07-30T03:03:26.703Z,37.66
2018-07-30T03:05:54.935Z,38.13
2018-07-30T03:08:24.111Z,38.07
2018-07-30T03:16:13.377Z,37.49
2018-07-30T03:21:11.160Z,37.42
2018-07-30T03:23:37.869Z,37.45
2018-07-30T03:26:03.887Z,36.36
2018-07-30T03:28:29.902Z,37.10
2018-07-30T03:30:55.923Z,37.07
2018-07-30T03:33:24.912Z,36.57
2018-07-30T03:35:50.924Z,36.34
2018-07-30T03:38:16.976Z,36.12
2018-07-30T03:40:42.977Z,36.41
2018-07-30T03:43:10.259Z,36.53
2018-07-30T03:45:36.301Z,37.14
2018-07-30T03:48:02.468Z,36.67
2018-07-30T03:50:29.116Z,35.93
2018-07-30T03:52:55.256Z,36.47
2018-07-30T03:55:21.336Z,36.57
2018-07-30T04:02:52.733Z,36.29
2018-07-30T04:05:19.199Z,36.01
2018-07-30T04:07:45.359Z,35.90
2018-07-30T04:10:13.107Z,36.83
2018-07-30T04:12:39.199Z,36.37
2018-07-30T04:15:05.169Z,36.08
2018-07-30T04:17:31.151Z,36.17
2018-07-30T04:19:57.311Z,36.14
2018-07-30T04:22:23.517Z,35.97
2018-07-30T04:24:50.450Z,36.60
2018-07-30T04:27:19.694Z,37.03
2018-07-30T04:29:47.352Z,36.74
2018-07-30T04:32:15.634Z,36.99
2018-07-30T04:34:41.755Z,36.35
2018-07-30T04:37:09.594Z,36.21
2018-07-30T04:39:37.319Z,36.95
2018-07-30T04:42:04.132Z,36.37
2018-07-30T04:44:31.016Z,36.65
2018-07-30T04:46:57.874Z,36.71
2018-07-30T04:49:25.247Z,36.84
2018-07-30T04:51:52.929Z,36.08
2018-07-30T04:54:19.361Z,35.94
2018-07-30T04:56:49.238Z,36.87
2018-07-30T04:59:17.143Z,36.47
2018-07-30T05:01:46.510Z,37.18
2018-07-30T05:04:13.621Z,37.08
2018-07-30T05:06:41.214Z,36.67
2018-07-30T05:09:09.395Z,37.23
2018-07-30T05:11:37.083Z,37.43
2018-07-30T05:16:38.346Z,37.24
2018-07-30T05:21:37.270Z,37.21
2018-07-30T05:24:03.945Z,38.35
2018-07-30T05:26:31.454Z,37.80
2018-07-30T05:29:01.181Z,37.92
2018-07-30T05:31:28.258Z,37.52
2018-07-30T05:33:54.330Z,37.93
2018-07-30T05:36:21.468Z,37.49
2018-07-30T05:38:48.198Z,37.98
2018-07-30T05:41:14.763Z,37.17
2018-07-30T05:43:41.226Z,37.56
2018-07-30T05:46:09.527Z,37.11
2018-07-30T05:48:36.156Z,36.84
2018-07-30T05:51:02.323Z,37.29
2018-07-30T05:53:30.082Z,37.55
2018-07-30T05:55:56.909Z,37.43
2018-07-30T05:58:24.426Z,37.63
2018-07-30T06:00:51.932Z,37.91
2018-07-30T06:03:20.206Z,36.80
2018-07-30T06:05:47.400Z,36.96
2018-07-30T06:10:48.105Z,36.58
2018-07-30T06:13:14.249Z,37.06
2018-07-30T06:15:42.056Z,36.94
2018-07-30T06:20:41.796Z,37.30
2018-07-30T06:23:09.220Z,37.07
2018-07-30T06:25:35.299Z,37.38
2018-07-30T06:28:03.079Z,37.34
2018-07-30T06:30:30.070Z,36.47
2018-07-30T06:33:00.238Z,36.66
2018-07-30T06:35:26.339Z,35.60
2018-07-30T06:37:54.602Z,35.14
2018-07-30T06:40:22.102Z,34.81
2018-07-30T06:42:51.922Z,34.12
2018-07-30T06:47:55.628Z,33.78
2018-07-30T06:50:22.650Z,35.04
2018-07-30T06:52:49.732Z,33.99
2018-07-30T06:55:16.565Z,33.05
2018-07-30T06:57:42.770Z,33.59
2018-07-30T07:00:10.916Z,33.22
2018-07-30T07:05:24.610Z,32.85
2018-07-30T07:09:10.672Z,32.93
2018-07-30T07:11:38.981Z,33.31
2018-07-30T07:14:05.124Z,32.56
2018-07-30T07:19:05.081Z,31.67
2018-07-30T07:21:33.117Z,31.85
2018-07-30T07:23:59.231Z,31.53
2018-07-30T08:26:29.642Z,31.01
2018-07-30T08:28:55.903Z,31.48
2018-07-30T08:31:21.982Z,30.98
2018-07-30T08:33:48.031Z,31.41
2018-07-30T08:36:14.087Z,30.37
2018-07-30T08:38:40.245Z,30.28
2018-07-30T08:41:06.372Z,31.23
2018-07-30T08:43:32.364Z,30.60
2018-07-30T08:45:58.388Z,30.64
2018-07-30T08:48:24.437Z,30.65
2018-07-30T08:50:50.457Z,30.39
2018-07-30T08:53:16.495Z,30.46
2018-07-30T08:55:42.498Z,30.73
2018-07-30T08:58:08.469Z,30.07
2018-07-30T09:00:34.444Z,29.65
2018-07-30T09:03:00.391Z,29.85
2018-07-30T09:05:26.367Z,30.14
2018-07-30T09:07:53.437Z,29.49
2018-07-30T09:10:25.070Z,29.15
2018-07-30T09:12:51.109Z,29.76
2018-07-30T09:15:17.089Z,29.97
2018-07-30T09:17:43.066Z,29.11
2018-07-30T09:20:09.046Z,28.31
2018-07-30T09:22:35.034Z,28.60
2018-07-30T09:25:01.005Z,28.75
2018-07-30T09:27:28.057Z,29.39
2018-07-30T09:29:54.030Z,28.69
2018-07-30T09:32:20.053Z,28.74
2018-07-30T09:34:46.022Z,28.69
2018-07-30T09:37:11.985Z,28.25
2018-07-30T09:39:38.014Z,27.79
2018-07-30T09:42:03.925Z,27.31
2018-07-30T09:44:29.885Z,27.51
2018-07-30T09:46:55.867Z,27.01
2018-07-30T09:49:21.883Z,27.08
2018-07-30T09:51:47.867Z,27.75
2018-07-30T09:54:13.871Z,27.51
2018-07-30T09:56:39.847Z,27.50
2018-07-30T09:59:05.824Z,27.64
2018-07-30T10:01:31.789Z,28.12
2018-07-30T10:03:57.827Z,27.51
2018-07-30T10:06:23.824Z,27.42
2018-07-30T10:08:49.847Z,27.58
2018-07-30T10:11:15.846Z,26.79
2018-07-30T10:13:42.921Z,27.22
2018-07-30T10:16:09.038Z,27.11
2018-07-30T10:18:36.105Z,27.45
2018-07-30T10:21:02.073Z,27.11
2018-07-30T10:23:28.080Z,27.22
2018-07-30T10:25:54.061Z,26.73
2018-07-30T10:28:20.093Z,26.53
2018-07-30T10:30:46.123Z,26.93
2018-07-30T10:33:12.062Z,26.79
2018-07-30T10:35:38.701Z,26.82
2018-07-30T10:38:04.805Z,29.02
2018-07-30T10:40:30.725Z,30.56
2018-07-30T10:42:56.695Z,30.24
2018-07-30T10:45:22.645Z,29.05
2018-07-30T10:47:48.717Z,28.73
2018-07-30T10:50:14.834Z,28.67
2018-07-30T10:52:40.969Z,28.63
2018-07-30T10:55:06.969Z,28.11
2018-07-30T10:57:32.993Z,28.53
2018-07-30T10:59:59.047Z,28.60
2018-07-30T11:02:25.173Z,28.04
2018-07-30T11:04:53.301Z,28.76
2018-07-30T11:07:19.483Z,28.44
2018-07-30T11:09:46.747Z,28.39
2018-07-30T11:14:45.757Z,27.92
2018-07-30T11:17:14.738Z,28.70
2018-07-30T11:19:40.796Z,28.81
2018-07-30T11:22:06.874Z,28.32
2018-07-30T11:24:32.913Z,28.29
2018-07-30T11:26:59.973Z,28.21
2018-07-30T11:29:26.048Z,28.88
2018-07-30T11:31:53.161Z,29.14
2018-07-30T11:34:20.241Z,28.65
2018-07-30T11:36:46.320Z,28.63
2018-07-30T11:39:12.434Z,28.81
2018-07-30T11:41:38.443Z,28.12
2018-07-30T11:44:04.446Z,28.36
2018-07-30T11:49:02.466Z,28.94
2018-07-30T11:54:00.407Z,28.22
2018-07-30T11:56:27.334Z,28.39
2018-07-30T11:58:56.696Z,28.59
2018-07-30T12:03:56.237Z,28.72
2018-07-30T12:06:25.019Z,29.23
2018-07-30T12:08:52.080Z,28.58
2018-07-30T12:11:20.098Z,28.54
2018-07-30T12:16:17.282Z,28.49
2018-07-30T12:18:44.367Z,28.44
2018-07-30T12:21:11.361Z,28.34
2018-07-30T12:23:37.384Z,28.40
2018-07-30T12:26:03.403Z,32.44
2018-07-30T12:28:30.467Z,32.61
2018-07-30T12:30:57.496Z,33.71
2018-07-30T12:33:23.525Z,33.02
2018-07-30T12:35:49.521Z,33.27
2018-07-30T12:38:15.574Z,33.34
2018-07-30T12:40:43.547Z,33.54
2018-07-30T12:43:10.596Z,31.27
2018-07-30T12:45:36.711Z,33.52
2018-07-30T12:48:02.745Z,33.33
2018-07-30T12:50:28.811Z,33.40
2018-07-30T12:52:54.769Z,32.95
2018-07-30T12:55:20.800Z,36.24
2018-07-30T13:00:18.792Z,40.08
2018-07-30T13:02:44.864Z,40.37
2018-07-30T13:05:11.872Z,40.41
2018-07-30T13:07:37.858Z,41.08
2018-07-30T13:10:03.912Z,40.82
2018-07-30T13:12:29.940Z,39.99
2018-07-30T13:14:57.765Z,39.88
2018-07-30T13:17:23.833Z,39.92
2018-07-30T13:19:50.893Z,39.72
2018-07-30T13:22:22.352Z,39.71
2018-07-30T13:24:48.425Z,40.58
2018-07-30T13:27:15.419Z,40.29
2018-07-30T13:29:45.123Z,40.63
2018-07-30T13:32:11.176Z,39.92
2018-07-30T13:34:37.165Z,40.52
2018-07-30T13:37:03.128Z,40.34
2018-07-30T13:39:29.093Z,40.23
2018-07-30T13:41:55.052Z,40.18
2018-07-30T13:44:21.039Z,39.75
2018-07-30T13:46:47.022Z,39.50
2018-07-30T13:49:13.027Z,39.60
2018-07-30T13:51:39.023Z,39.01
2018-07-30T13:54:07.046Z,38.93
2018-07-30T13:56:32.973Z,39.21
2018-07-30T13:58:58.961Z,39.60
2018-07-30T14:01:24.936Z,38.57
2018-07-30T14:03:50.950Z,37.29
2018-07-30T14:06:16.992Z,37.75
2018-07-30T14:08:42.903Z,37.45
2018-07-30T14:11:08.877Z,33.64
2018-07-30T14:13:34.841Z,34.73
2018-07-30T14:16:00.806Z,35.92
2018-07-30T14:18:26.772Z,36.93
2018-07-30T14:20:52.713Z,34.07
2018-07-30T14:23:18.681Z,34.84
2018-07-30T14:25:44.647Z,35.27
2018-07-30T14:28:10.627Z,35.91
2018-07-30T14:30:36.570Z,36.24
2018-07-30T14:33:02.515Z,36.26
2018-07-30T14:35:28.493Z,35.51
2018-07-30T14:37:54.454Z,34.03
2018-07-30T14:40:20.432Z,33.82
2018-07-30T14:42:46.437Z,31.55
2018-07-30T14:45:12.469Z,34.14
2018-07-30T14:47:38.508Z,34.72
2018-07-30T14:50:04.588Z,34.78
2018-07-30T14:52:30.615Z,34.51
2018-07-30T14:54:56.648Z,33.58
2018-07-30T14:57:22.745Z,30.43
2018-07-30T14:59:48.864Z,30.30
2018-07-30T15:02:14.825Z,30.72
2018-07-30T15:04:40.892Z,31.69
2018-07-30T15:07:06.989Z,30.90
2018-07-30T15:09:33.021Z,29.72
2018-07-30T15:11:59.077Z,29.66
2018-07-30T15:14:25.154Z,29.85
2018-07-30T15:16:51.222Z,28.82
2018-07-30T15:19:17.959Z,29.63
2018-07-30T15:21:47.772Z,31.17
2018-07-30T15:24:14.671Z,32.09
2018-07-30T15:26:41.462Z,32.28
2018-07-30T15:59:11.919Z,31.92
2018-07-30T16:01:37.963Z,32.38
2018-07-30T16:04:06.203Z,31.80
2018-07-30T16:09:03.630Z,31.27
2018-07-30T16:16:33.448Z,30.71
2018-07-30T16:19:00.818Z,31.33
2018-07-30T16:26:03.392Z,32.56
2018-07-30T16:31:01.421Z,31.58
2018-07-30T16:33:27.408Z,31.75
2018-07-30T16:35:53.393Z,31.79
2018-07-30T16:40:51.108Z,31.66
2018-07-30T16:43:17.173Z,31.22
2018-07-30T16:45:43.289Z,31.40
2018-07-30T16:50:41.713Z,30.86
2018-07-30T16:53:07.751Z,31.03
2018-07-30T16:55:33.738Z,31.01
2018-07-30T16:57:59.720Z,31.09
2018-07-30T17:00:25.723Z,31.14
2018-07-30T17:02:51.837Z,30.87
2018-07-30T17:05:18.772Z,30.70
2018-07-30T17:07:45.083Z,30.83
2018-07-30T17:10:11.819Z,30.43
2018-07-30T17:22:49.542Z,30.69
2018-07-30T17:25:15.668Z,30.46
2018-07-30T17:27:41.784Z,29.63
2018-07-30T17:30:09.770Z,29.92
2018-07-30T17:32:36.090Z,30.33
2018-07-30T17:35:02.223Z,30.05
2018-07-30T17:37:29.174Z,30.05
2018-07-30T17:40:02.346Z,30.46
2018-07-30T17:42:32.245Z,30.42
2018-07-30T17:44:59.552Z,30.71
2018-07-30T17:50:03.988Z,29.74
2018-07-30T17:52:33.871Z,29.22
2018-07-30T17:55:00.667Z,28.43
2018-07-30T17:57:27.421Z,29.52
2018-07-30T17:59:56.990Z,30.15
2018-07-30T18:02:23.979Z,30.00
2018-07-30T18:09:59.191Z,29.89
2018-07-30T18:12:27.089Z,28.80
2018-07-30T18:14:53.853Z,29.39
2018-07-30T18:17:39.740Z,29.86
2018-07-30T18:20:05.899Z,29.41
2018-07-30T18:22:36.043Z,29.13
2018-07-30T18:25:02.106Z,29.05
2018-07-30T18:30:03.333Z,29.08
2018-07-30T18:32:29.614Z,28.94
2018-07-30T18:34:55.749Z,29.15
2018-07-30T18:37:22.859Z,28.83
2018-07-30T18:47:41.135Z,29.27
2018-07-30T18:50:17.020Z,28.59
2018-07-30T18:55:18.251Z,28.66
2018-07-30T18:57:49.802Z,28.16
2018-07-30T19:00:16.030Z,28.84
2018-07-30T19:02:42.131Z,28.72
2018-07-30T19:07:39.945Z,29.24
2018-07-30T19:10:12.666Z,27.81
2018-07-30T19:16:05.501Z,28.13
2018-07-30T19:21:05.667Z,29.36
2018-07-30T19:23:32.329Z,29.76
2018-07-30T19:25:59.599Z,28.76
2018-07-30T19:28:25.720Z,29.04
2018-07-30T19:30:52.990Z,30.01
2018-07-30T19:35:53.553Z,28.76
2018-07-30T19:38:21.823Z,28.82
2018-07-30T19:40:48.876Z,27.97
2018-07-30T19:43:17.452Z,29.20
2018-07-30T19:51:05.955Z,27.96
2018-07-30T19:53:34.945Z,28.29
2018-07-30T19:58:34.205Z,28.58
2018-07-30T20:08:41.850Z,28.84
2018-07-30T20:18:56.937Z,28.87
2018-07-30T20:27:15.074Z,28.96
2018-07-30T20:32:16.137Z,29.18
2018-07-30T20:34:43.061Z,28.81
2018-07-30T20:37:12.689Z,28.90
2018-07-30T20:54:58.505Z,29.89
2018-07-30T20:57:24.614Z,30.43
2018-07-30T20:59:50.650Z,31.09
2018-07-30T21:02:16.777Z,29.95
2018-07-30T21:04:42.889Z,29.95
2018-07-30T21:07:08.871Z,30.20
2018-07-30T21:09:34.834Z,30.44
2018-07-30T21:12:00.815Z,30.36
2018-07-30T21:14:26.826Z,31.35
2018-07-30T21:16:52.831Z,31.12
2018-07-30T21:19:18.978Z,30.95
2018-07-30T21:21:44.990Z,30.90
2018-07-30T21:24:11.025Z,31.65
2018-07-30T21:26:37.028Z,33.12
2018-07-30T21:29:03.013Z,32.56
2018-07-30T21:31:29.009Z,32.62
2018-07-30T21:33:54.957Z,32.54
2018-07-30T21:36:20.936Z,32.43
2018-07-30T21:38:46.918Z,32.44
2018-07-30T21:41:12.948Z,31.78
2018-07-30T21:43:38.912Z,32.01
2018-07-30T21:46:04.884Z,32.37
2018-07-30T21:48:30.865Z,32.27
2018-07-30T21:50:56.847Z,31.81
2018-07-30T21:53:22.782Z,31.25
2018-07-30T21:55:48.770Z,31.87
2018-07-30T21:58:14.739Z,31.60
2018-07-30T22:00:40.762Z,31.48
2018-07-30T22:03:06.797Z,31.87
2018-07-30T22:05:32.855Z,32.48
2018-07-30T22:07:58.787Z,32.80
2018-07-30T22:10:24.743Z,31.72
2018-07-30T22:12:50.693Z,32.85
2018-07-30T22:15:17.069Z,32.84
2018-07-30T22:17:43.024Z,32.56
2018-07-30T22:20:09.030Z,33.34
2018-07-30T22:22:35.001Z,32.29
2018-07-30T22:25:01.015Z,32.63
2018-07-30T22:27:27.035Z,32.30
2018-07-30T22:29:53.050Z,32.23
2018-07-30T22:32:19.029Z,32.74
2018-07-30T22:34:45.047Z,33.38
2018-07-30T22:37:11.017Z,34.00
2018-07-30T22:39:37.042Z,34.23
2018-07-30T22:42:02.988Z,33.75
2018-07-30T22:44:28.955Z,34.11
2018-07-30T22:46:54.945Z,33.87
2018-07-30T22:49:20.920Z,33.94
2018-07-30T22:51:46.940Z,33.96
2018-07-30T22:54:12.949Z,34.43
2018-07-30T22:56:38.957Z,34.87
2018-07-30T22:59:04.907Z,35.53
2018-07-30T23:01:30.889Z,35.50
2018-07-30T23:03:56.874Z,34.72
2018-07-30T23:06:22.878Z,35.21
2018-07-30T23:08:48.867Z,35.05
2018-07-30T23:11:14.841Z,35.32
2018-07-30T23:13:40.815Z,35.33
2018-07-30T23:16:06.852Z,35.08
2018-07-30T23:18:32.866Z,35.12
2018-07-30T23:20:58.963Z,35.67
2018-07-30T23:23:25.086Z,34.97
2018-07-30T23:25:51.141Z,35.24
2018-07-30T23:28:17.166Z,34.77
2018-07-30T23:30:43.169Z,35.20
2018-07-30T23:33:09.210Z,35.85
2018-07-30T23:35:35.241Z,35.29
2018-07-30T23:38:01.286Z,35.20
2018-07-30T23:40:27.314Z,34.35
2018-07-30T23:42:53.307Z,35.24
2018-07-30T23:45:19.313Z,34.63
2018-07-30T23:47:45.309Z,35.26
2018-07-30T23:50:11.268Z,35.50
2018-07-30T23:52:37.295Z,34.94
2018-07-30T23:55:03.384Z,35.78
2018-07-30T23:57:29.234Z,36.88
2018-07-30T23:59:57.087Z,36.93
